Time;durP1;ratioP1;P1;durP2;ratioP2;P2;SDS_P1;SDS_P2;PMS_P1;PMS_P2;Temp;Humidity;BMP_temperature;BMP_pressure;BME280_temperature;BME280_humidity;BME280_pressure;Samples;Min_cycle;Max_cycle;Signal;HPM_P1;HPM_P2
2021/05/07 00:00:26;;;;;;;8.18;2.90;;;4.40;99.90;;;;;;5040235;28;20386;-63
2021/05/07 00:02:52;;;;;;;9.25;4.07;;;4.30;99.90;;;;;;5051766;28;20072;-63
2021/05/07 00:05:18;;;;;;;4.50;2.55;;;4.30;99.90;;;;;;5045101;28;20029;-63
2021/05/07 00:07:43;;;;;;;7.60;2.40;;;4.30;99.90;;;;;;5054021;28;20533;-63
2021/05/07 00:10:12;;;;;;;7.03;2.55;;;4.30;99.90;;;;;;5031493;28;20086;-63
2021/05/07 00:12:38;;;;;;;4.25;2.35;;;4.20;99.90;;;;;;5056105;28;20112;-63
2021/05/07 00:15:04;;;;;;;11.93;2.88;;;4.20;99.90;;;;;;5050485;28;20166;-64
2021/05/07 00:17:30;;;;;;;7.03;2.72;;;4.20;99.90;;;;;;5052182;28;20424;-63
2021/05/07 00:19:55;;;;;;;4.70;2.67;;;4.20;99.90;;;;;;5043991;28;20112;-63
2021/05/07 00:22:21;;;;;;;9.43;3.38;;;4.10;99.90;;;;;;5040706;28;20064;-63
2021/05/07 00:24:46;;;;;;;3.85;2.28;;;4.10;99.90;;;;;;5047266;28;20037;-63
2021/05/07 00:27:16;;;;;;;9.07;2.58;;;4.10;99.90;;;;;;5037503;28;20086;-63
2021/05/07 00:29:42;;;;;;;4.55;2.65;;;4.10;99.90;;;;;;5028709;28;20171;-63
2021/05/07 00:32:07;;;;;;;6.90;2.97;;;4.10;99.90;;;;;;5033184;28;20061;-63
2021/05/07 00:34:33;;;;;;;4.32;2.35;;;4.10;99.90;;;;;;5043027;28;20114;-63
2021/05/07 00:36:59;;;;;;;5.03;2.60;;;4.00;99.90;;;;;;5046677;28;20159;-63
2021/05/07 00:39:24;;;;;;;4.72;2.25;;;4.00;99.90;;;;;;5038824;28;20039;-63
2021/05/07 00:41:50;;;;;;;4.78;2.42;;;4.00;99.90;;;;;;5036262;28;20084;-63
2021/05/07 00:44:15;;;;;;;13.45;3.92;;;4.00;99.90;;;;;;5039025;28;20612;-63
2021/05/07 00:46:43;;;;;;;8.68;3.17;;;4.00;99.90;;;;;;5037899;28;20046;-63
2021/05/07 00:49:09;;;;;;;7.45;3.05;;;3.90;99.90;;;;;;5043487;28;20108;-64
2021/05/07 00:51:34;;;;;;;4.68;2.55;;;3.90;99.90;;;;;;5038761;28;20056;-63
2021/05/07 00:54:00;;;;;;;6.78;2.53;;;3.90;99.90;;;;;;5036989;28;20041;-63
2021/05/07 00:56:26;;;;;;;3.55;2.15;;;3.90;99.90;;;;;;5039354;28;20124;-63
2021/05/07 00:58:52;;;;;;;5.03;2.88;;;3.90;99.90;;;;;;5025879;28;20534;-63
2021/05/07 01:01:17;;;;;;;6.50;2.40;;;3.90;99.90;;;;;;5038852;28;20040;-64
2021/05/07 01:03:43;;;;;;;4.93;3.00;;;3.90;99.90;;;;;;5037509;28;20082;-63
2021/05/07 01:06:09;;;;;;;6.28;2.75;;;4.00;99.90;;;;;;5038474;28;20041;-63
2021/05/07 01:08:35;;;;;;;4.95;2.70;;;4.10;99.90;;;;;;5038277;28;20040;-63
2021/05/07 01:11:01;;;;;;;6.15;2.65;;;4.10;99.90;;;;;;5028271;28;20627;-63
2021/05/07 01:13:27;;;;;;;4.07;2.25;;;4.10;99.90;;;;;;5039320;28;20520;-64
2021/05/07 01:15:52;;;;;;;6.78;2.83;;;4.00;99.90;;;;;;5037712;28;20052;-63
2021/05/07 01:18:18;;;;;;;5.45;3.08;;;4.00;99.90;;;;;;5034873;28;20057;-64
2021/05/07 01:20:43;;;;;;;5.80;2.80;;;4.00;99.90;;;;;;5038648;28;20052;-63
2021/05/07 01:23:10;;;;;;;5.45;3.35;;;4.00;99.90;;;;;;5022480;28;551006;-63
2021/05/07 01:25:41;;;;;;;8.85;2.83;;;4.00;99.90;;;;;;5038241;28;20509;-64
2021/05/07 01:28:08;;;;;;;5.60;2.83;;;3.90;99.90;;;;;;5040397;28;20041;-63
2021/05/07 01:30:39;;;;;;;6.43;3.03;;;3.90;99.90;;;;;;5038396;28;20486;-63
2021/05/07 01:33:05;;;;;;;8.27;3.78;;;4.00;99.90;;;;;;5038820;28;20029;-63
2021/05/07 01:35:33;;;;;;;11.05;3.85;;;4.00;99.90;;;;;;5036845;28;20402;-63
2021/05/07 01:38:01;;;;;;;6.63;2.85;;;4.10;99.90;;;;;;5028103;28;20510;-63
2021/05/07 01:40:33;;;;;;;7.68;3.55;;;4.20;99.90;;;;;;5038902;28;20025;-64
2021/05/07 01:42:59;;;;;;;5.75;2.92;;;4.20;99.90;;;;;;5037702;28;20038;-64
2021/05/07 01:45:27;;;;;;;5.45;3.50;;;4.30;99.90;;;;;;5039343;28;20021;-63
2021/05/07 01:47:53;;;;;;;4.30;2.60;;;4.40;99.90;;;;;;5026741;28;20030;-63
2021/05/07 01:50:24;;;;;;;7.95;2.92;;;4.50;99.90;;;;;;5039955;28;20426;-63
2021/05/07 01:52:50;;;;;;;6.18;3.10;;;4.50;99.90;;;;;;5039901;28;20025;-63
2021/05/07 01:55:19;;;;;;;5.50;2.88;;;4.60;99.90;;;;;;5036369;28;20042;-63
2021/05/07 01:57:45;;;;;;;7.72;3.30;;;4.60;99.90;;;;;;5038453;28;20074;-63
2021/05/07 02:00:14;;;;;;;6.72;3.22;;;4.60;99.90;;;;;;5027438;28;20042;-63
2021/05/07 02:02:42;;;;;;;5.35;3.13;;;4.60;99.90;;;;;;5038788;28;20088;-63
2021/05/07 02:05:08;;;;;;;6.90;2.97;;;4.60;99.90;;;;;;5036742;28;20830;-64
2021/05/07 02:07:34;;;;;;;7.95;3.20;;;4.70;99.90;;;;;;5038047;28;20057;-64
2021/05/07 02:09:59;;;;;;;7.22;3.22;;;4.70;99.90;;;;;;5037740;28;20044;-63
2021/05/07 02:12:26;;;;;;;7.07;3.20;;;4.70;99.90;;;;;;5027598;28;20493;-63
2021/05/07 02:14:52;;;;;;;9.07;3.58;;;4.70;99.90;;;;;;5029277;28;20029;-64
2021/05/07 02:17:18;;;;;;;9.32;3.42;;;4.70;99.90;;;;;;5036444;28;20044;-63
2021/05/07 02:19:44;;;;;;;7.65;2.85;;;4.70;99.90;;;;;;5039269;28;20045;-64
2021/05/07 02:22:09;;;;;;;4.72;2.45;;;4.70;99.90;;;;;;5026205;28;20036;-63
2021/05/07 02:24:35;;;;;;;4.63;2.70;;;4.70;99.90;;;;;;5041785;28;20508;-63
2021/05/07 02:27:00;;;;;;;8.38;3.35;;;4.80;99.90;;;;;;5036725;28;20041;-63
2021/05/07 02:29:26;;;;;;;5.80;2.70;;;4.90;99.90;;;;;;5038289;28;20032;-63
2021/05/07 02:31:52;;;;;;;4.13;2.13;;;5.00;99.90;;;;;;5036127;28;20075;-63
2021/05/07 02:34:17;;;;;;;6.32;2.60;;;5.00;99.90;;;;;;5028229;28;20450;-63
2021/05/07 02:36:43;;;;;;;7.53;2.58;;;5.10;99.90;;;;;;5038417;28;20078;-63
2021/05/07 02:39:09;;;;;;;5.65;1.98;;;5.00;99.90;;;;;;5043354;28;20060;-63
2021/05/07 02:41:38;;;;;;;5.05;1.70;;;5.10;99.90;;;;;;5028627;28;20051;-63
2021/05/07 02:44:05;;;;;;;3.20;1.88;;;5.10;99.90;;;;;;5026058;28;20048;-63
2021/05/07 02:46:34;;;;;;;6.00;1.45;;;5.10;99.90;;;;;;5041872;28;20044;-63
2021/05/07 02:49:00;;;;;;;1.85;1.30;;;5.10;99.90;;;;;;5034799;28;20403;-63
2021/05/07 02:51:27;;;;;;;5.38;1.05;;;5.20;99.90;;;;;;5030760;28;20025;-63
2021/05/07 02:53:53;;;;;;;1.58;1.17;;;5.20;99.90;;;;;;5035558;28;20029;-63
2021/05/07 02:56:19;;;;;;;2.20;0.82;;;5.20;99.90;;;;;;5037374;28;20036;-63
2021/05/07 02:58:45;;;;;;;1.85;0.70;;;5.30;99.90;;;;;;5034865;28;20040;-63
2021/05/07 03:01:10;;;;;;;0.82;0.50;;;5.30;99.90;;;;;;5037595;28;20588;-63
2021/05/07 03:03:36;;;;;;;1.63;0.90;;;5.30;99.90;;;;;;5035586;28;20386;-63
2021/05/07 03:06:01;;;;;;;1.42;0.70;;;5.20;99.90;;;;;;5025970;28;20045;-64
2021/05/07 03:08:27;;;;;;;1.30;0.75;;;5.20;99.90;;;;;;5036892;28;20033;-63
2021/05/07 03:10:52;;;;;;;3.58;0.90;;;5.10;99.90;;;;;;5035828;28;20061;-64
2021/05/07 03:13:18;;;;;;;0.90;0.32;;;5.00;99.90;;;;;;5037555;28;20045;-63
2021/05/07 03:15:44;;;;;;;3.13;0.60;;;4.90;99.90;;;;;;5035013;28;20037;-63
2021/05/07 03:18:17;;;;;;;2.42;0.50;;;4.70;99.90;;;;;;5037043;28;20028;-63
2021/05/07 03:20:44;;;;;;;3.03;0.70;;;4.70;99.90;;;;;;5025054;28;20034;-63
2021/05/07 03:23:10;;;;;;;1.70;0.63;;;4.50;99.90;;;;;;5041864;28;20160;-63
2021/05/07 03:25:36;;;;;;;2.28;0.90;;;4.40;99.90;;;;;;5036093;28;20033;-63
2021/05/07 03:28:03;;;;;;;1.13;0.63;;;4.50;99.90;;;;;;5036389;28;20405;-64
2021/05/07 03:30:28;;;;;;;1.17;0.43;;;4.40;99.90;;;;;;5036610;28;20029;-63
2021/05/07 03:32:54;;;;;;;2.80;0.80;;;4.40;99.90;;;;;;5036066;28;20083;-63
2021/05/07 03:35:20;;;;;;;4.40;0.60;;;4.30;99.90;;;;;;5027528;28;20383;-64
2021/05/07 03:37:46;;;;;;;3.33;0.65;;;4.20;99.90;;;;;;5040500;28;20471;-64
2021/05/07 03:40:12;;;;;;;2.58;0.65;;;4.10;99.90;;;;;;5024947;28;20394;-65
2021/05/07 03:42:37;;;;;;;1.92;0.60;;;4.00;99.90;;;;;;5037912;28;20041;-64
2021/05/07 03:45:04;;;;;;;1.73;0.63;;;4.00;99.90;;;;;;5035728;28;20052;-64
2021/05/07 03:47:29;;;;;;;4.95;0.80;;;3.90;99.90;;;;;;5036624;28;20395;-64
2021/05/07 03:49:55;;;;;;;1.90;0.63;;;3.80;99.90;;;;;;5036460;28;20035;-63
2021/05/07 03:52:20;;;;;;;3.83;0.80;;;3.70;99.90;;;;;;5035606;28;20109;-64
2021/05/07 03:54:46;;;;;;;0.70;0.65;;;3.60;99.90;;;;;;5039509;28;20036;-64
2021/05/07 03:57:11;;;;;;;0.43;0.32;;;3.50;99.90;;;;;;5035863;28;20509;-64
2021/05/07 03:59:37;;;;;;;1.20;0.40;;;3.50;99.90;;;;;;5037814;28;20040;-64
2021/05/07 04:02:03;;;;;;;3.08;0.55;;;3.40;99.90;;;;;;5034916;28;20139;-64
2021/05/07 04:04:30;;;;;;;1.88;0.50;;;3.40;99.90;;;;;;5035750;28;20057;-64
2021/05/07 04:06:55;;;;;;;2.30;0.70;;;3.30;99.90;;;;;;5026259;28;20135;-63
2021/05/07 04:09:30;;;;;;;0.85;0.52;;;3.30;99.90;;;;;;5034602;28;20121;-64
2021/05/07 04:12:10;;;;;;;1.85;0.50;;;3.20;99.90;;;;;;5035335;28;20199;-63
2021/05/07 04:14:36;;;;;;;3.30;1.42;;;3.20;99.90;;;;;;5036712;28;20045;-64
2021/05/07 04:17:03;;;;;;;1.38;0.70;;;3.20;99.90;;;;;;5035152;28;20536;-64
2021/05/07 04:19:28;;;;;;;3.25;0.55;;;3.20;99.90;;;;;;5035845;28;20465;-64
2021/05/07 04:21:54;;;;;;;2.00;0.73;;;3.20;99.90;;;;;;5035423;28;20025;-64
2021/05/07 04:24:19;;;;;;;2.22;0.75;;;3.20;99.90;;;;;;5029135;28;20550;-63
2021/05/07 04:26:45;;;;;;;3.85;1.17;;;3.20;99.90;;;;;;5027251;28;20033;-64
2021/05/07 04:29:10;;;;;;;1.85;0.70;;;3.20;99.90;;;;;;5024195;28;20056;-63
2021/05/07 04:31:36;;;;;;;2.13;1.05;;;3.30;99.90;;;;;;5027419;28;20381;-64
2021/05/07 04:34:02;;;;;;;2.28;0.82;;;3.40;99.90;;;;;;5034610;28;20107;-63
2021/05/07 04:36:28;;;;;;;5.72;1.00;;;3.40;99.90;;;;;;5039918;28;20075;-63
2021/05/07 04:38:56;;;;;;;3.00;1.10;;;3.40;99.90;;;;;;5051805;28;20870;-64
2021/05/07 04:41:22;;;;;;;4.30;0.88;;;3.40;99.90;;;;;;5036240;28;20485;-63
2021/05/07 04:43:48;;;;;;;1.60;0.80;;;3.40;99.90;;;;;;5034627;28;20030;-64
2021/05/07 04:46:13;;;;;;;1.58;0.90;;;3.40;99.90;;;;;;5027753;28;21049;-63
2021/05/07 04:48:39;;;;;;;1.75;0.80;;;3.40;99.90;;;;;;5033233;28;20706;-64
2021/05/07 04:51:04;;;;;;;1.55;0.85;;;3.40;99.90;;;;;;5043148;28;20036;-64
2021/05/07 04:53:30;;;;;;;2.55;0.90;;;3.50;99.90;;;;;;5026003;28;20048;-63
2021/05/07 04:55:55;;;;;;;2.55;0.80;;;3.60;99.90;;;;;;5040673;28;20059;-63
2021/05/07 04:58:21;;;;;;;1.98;0.88;;;3.70;99.90;;;;;;5039476;28;20038;-63
2021/05/07 05:00:46;;;;;;;1.88;0.80;;;3.70;99.90;;;;;;5040210;28;20032;-63
2021/05/07 05:03:12;;;;;;;4.53;0.75;;;3.80;99.90;;;;;;5032619;28;20044;-63
2021/05/07 05:05:37;;;;;;;1.40;0.52;;;3.90;99.90;;;;;;5056613;28;20043;-63
2021/05/07 05:08:04;;;;;;;1.83;0.70;;;3.90;99.90;;;;;;5044791;28;20034;-64
2021/05/07 05:10:30;;;;;;;1.05;0.47;;;3.90;99.90;;;;;;5039819;28;20107;-63
2021/05/07 05:12:55;;;;;;;1.17;0.82;;;3.90;99.90;;;;;;5038942;28;20064;-64
2021/05/07 05:15:21;;;;;;;1.10;0.80;;;3.80;99.90;;;;;;5040186;28;20119;-63
2021/05/07 05:17:46;;;;;;;3.40;1.00;;;3.80;99.90;;;;;;5029659;28;20160;-63
2021/05/07 05:20:12;;;;;;;1.77;0.75;;;3.80;99.90;;;;;;5029769;28;20037;-64
2021/05/07 05:22:38;;;;;;;3.67;0.80;;;3.80;99.90;;;;;;5027643;28;20125;-64
2021/05/07 05:25:05;;;;;;;1.17;0.88;;;3.80;99.90;;;;;;5040209;28;20061;-63
2021/05/07 05:27:35;;;;;;;2.78;0.82;;;3.70;99.90;;;;;;5037109;28;20041;-63
2021/05/07 05:30:01;;;;;;;1.98;1.48;;;3.80;99.90;;;;;;5038133;28;20082;-64
2021/05/07 05:32:27;;;;;;;3.67;1.10;;;3.80;99.90;;;;;;5038851;28;20030;-63
2021/05/07 05:34:52;;;;;;;1.55;0.80;;;3.80;99.90;;;;;;5028480;28;20064;-63
2021/05/07 05:37:19;;;;;;;7.40;0.82;;;3.90;99.90;;;;;;5045244;28;20037;-63
2021/05/07 05:39:44;;;;;;;1.85;0.80;;;4.00;99.90;;;;;;5037572;28;20033;-64
2021/05/07 05:42:10;;;;;;;2.22;0.80;;;4.80;99.90;;;;;;5040113;28;20037;-63
2021/05/07 05:44:36;;;;;;;0.85;0.40;;;6.10;99.90;;;;;;5037386;28;20038;-64
2021/05/07 05:47:02;;;;;;;2.58;0.40;;;7.80;99.90;;;;;;5040050;28;20398;-64
2021/05/07 05:49:27;;;;;;;1.02;0.30;;;9.10;99.90;;;;;;5039536;28;20037;-64
2021/05/07 05:51:53;;;;;;;0.80;0.20;;;10.40;99.90;;;;;;5028507;28;20041;-64
2021/05/07 05:54:18;;;;;;;0.43;0.13;;;11.30;99.90;;;;;;5027829;28;20052;-65
2021/05/07 05:56:45;;;;;;;0.38;0.10;;;11.90;99.90;;;;;;5026454;28;20099;-64
2021/05/07 05:59:10;;;;;;;0.57;0.20;;;12.70;99.90;;;;;;5028921;28;20037;-64
2021/05/07 06:01:36;;;;;;;1.58;0.17;;;13.40;99.90;;;;;;5035707;28;20048;-64
2021/05/07 06:04:02;;;;;;;0.50;0.38;;;14.10;99.90;;;;;;5032588;28;20051;-64
2021/05/07 06:06:27;;;;;;;1.70;0.30;;;14.40;99.90;;;;;;5028613;28;20037;-65
2021/05/07 06:08:53;;;;;;;1.05;0.25;;;14.50;99.90;;;;;;5025690;28;20043;-65
2021/05/07 06:11:18;;;;;;;1.67;0.32;;;15.10;98.90;;;;;;5042390;28;20041;-66
2021/05/07 06:13:44;;;;;;;1.30;0.40;;;15.60;97.30;;;;;;5037794;28;20048;-65
2021/05/07 06:16:09;;;;;;;0.65;0.35;;;15.70;96.10;;;;;;5038563;28;20375;-65
2021/05/07 06:18:35;;;;;;;1.85;0.47;;;15.80;93.00;;;;;;5037493;28;20133;-63
2021/05/07 06:21:00;;;;;;;3.13;0.20;;;16.20;93.30;;;;;;5039598;28;20556;-65
2021/05/07 06:23:26;;;;;;;1.83;0.50;;;16.60;90.20;;;;;;5037460;28;20532;-66
2021/05/07 06:25:52;;;;;;;1.05;0.40;;;16.90;90.30;;;;;;5037293;28;20482;-66
2021/05/07 06:28:18;;;;;;;0.47;0.35;;;16.90;85.60;;;;;;5036896;28;20040;-66
2021/05/07 06:30:43;;;;;;;0.80;0.40;;;17.20;83.50;;;;;;5026375;28;20034;-66
2021/05/07 06:33:09;;;;;;;0.63;0.30;;;17.50;81.90;;;;;;5040257;28;20047;-66
2021/05/07 06:35:34;;;;;;;1.65;0.50;;;18.10;75.30;;;;;;5048365;28;20036;-66
2021/05/07 06:38:02;;;;;;;0.77;0.35;;;18.30;72.50;;;;;;5021680;28;20033;-65
2021/05/07 06:40:27;;;;;;;0.60;0.40;;;18.40;69.90;;;;;;5032125;28;20896;-66
2021/05/07 06:42:53;;;;;;;2.13;0.45;;;18.50;70.10;;;;;;5038730;28;20029;-66
2021/05/07 06:45:18;;;;;;;1.30;0.30;;;18.60;67.30;;;;;;5039426;28;20631;-65
2021/05/07 06:47:44;;;;;;;1.48;0.80;;;18.80;66.10;;;;;;5035670;28;20025;-65
2021/05/07 06:50:12;;;;;;;1.75;0.57;;;18.80;66.60;;;;;;5039263;28;20040;-66
2021/05/07 06:52:39;;;;;;;0.45;0.32;;;19.30;66.70;;;;;;5034318;28;20563;-65
2021/05/07 06:55:06;;;;;;;1.90;0.60;;;19.60;64.90;;;;;;5027851;28;20064;-64
2021/05/07 06:57:32;;;;;;;1.50;0.80;;;20.00;64.20;;;;;;5034099;28;20037;-64
2021/05/07 06:59:57;;;;;;;1.30;0.93;;;19.90;61.20;;;;;;5028054;28;20102;-64
2021/05/07 07:02:23;;;;;;;2.22;0.80;;;20.00;60.80;;;;;;5038495;28;20033;-64
2021/05/07 07:04:49;;;;;;;2.33;0.85;;;20.10;59.30;;;;;;5052982;28;20033;-64
2021/05/07 07:07:15;;;;;;;1.25;0.90;;;20.50;58.90;;;;;;5031478;28;20486;-64
2021/05/07 07:09:41;;;;;;;0.95;0.70;;;20.20;61.70;;;;;;5035871;28;20033;-65
2021/05/07 07:12:07;;;;;;;3.05;0.90;;;20.60;59.10;;;;;;5030441;28;20030;-64
2021/05/07 07:14:39;;;;;;;2.90;1.10;;;20.20;59.50;;;;;;5036922;28;20433;-66
2021/05/07 07:17:08;;;;;;;1.95;0.85;;;19.80;60.80;;;;;;5041239;28;20041;-64
2021/05/07 07:19:35;;;;;;;1.63;1.00;;;20.20;61.20;;;;;;5044613;28;20040;-64
2021/05/07 07:22:05;;;;;;;3.38;1.30;;;20.60;58.50;;;;;;5040413;28;20047;-65
2021/05/07 07:24:31;;;;;;;5.10;1.17;;;20.10;58.20;;;;;;5038585;28;20086;-65
2021/05/07 07:26:57;;;;;;;2.00;1.10;;;21.00;58.30;;;;;;5039830;28;20036;-65
2021/05/07 07:29:22;;;;;;;3.47;1.17;;;20.50;58.50;;;;;;5038306;28;20041;-65
2021/05/07 07:31:48;;;;;;;2.75;1.35;;;21.30;55.30;;;;;;5036334;28;20180;-64
2021/05/07 07:34:14;;;;;;;1.55;1.13;;;21.30;56.40;;;;;;5038787;28;20502;-64
2021/05/07 07:36:40;;;;;;;2.20;1.15;;;21.00;56.70;;;;;;5021156;28;20033;-65
2021/05/07 07:39:06;;;;;;;2.58;1.38;;;22.00;54.50;;;;;;5042428;28;20138;-65
2021/05/07 07:41:32;;;;;;;1.55;1.08;;;22.20;53.50;;;;;;5040992;28;20037;-66
2021/05/07 07:43:58;;;;;;;3.30;1.38;;;22.00;54.00;;;;;;5041057;28;20040;-65
2021/05/07 07:46:23;;;;;;;3.47;1.70;;;21.80;51.80;;;;;;5041028;28;20084;-66
2021/05/07 07:48:49;;;;;;;2.15;1.40;;;20.30;53.60;;;;;;5041455;28;20056;-67
2021/05/07 07:51:15;;;;;;;1.80;1.17;;;18.50;55.80;;;;;;5040461;28;20098;-66
2021/05/07 07:53:40;;;;;;;1.35;0.90;;;17.40;63.20;;;;;;5040678;28;20504;-67
2021/05/07 07:56:06;;;;;;;1.73;0.85;;;16.40;64.00;;;;;;5039908;28;20037;-66
2021/05/07 07:58:31;;;;;;;2.28;0.90;;;15.90;72.20;;;;;;5039387;28;20741;-66
2021/05/07 08:00:57;;;;;;;4.00;1.00;;;15.90;69.80;;;;;;5033443;28;20033;-66
2021/05/07 08:03:23;;;;;;;2.58;1.15;;;15.60;67.90;;;;;;5037266;28;20036;-65
2021/05/07 08:05:48;;;;;;;1.85;0.85;;;15.30;70.60;;;;;;5032841;28;20030;-66
2021/05/07 08:08:14;;;;;;;3.25;1.00;;;15.00;70.60;;;;;;5027385;28;20521;-66
2021/05/07 08:10:39;;;;;;;1.90;0.90;;;14.90;71.40;;;;;;5035711;28;20482;-66
2021/05/07 08:13:05;;;;;;;1.95;0.73;;;15.10;74.70;;;;;;5030980;28;20434;-66
2021/05/07 08:15:30;;;;;;;1.25;0.75;;;15.30;71.80;;;;;;5033536;28;20156;-64
2021/05/07 08:17:56;;;;;;;2.42;0.80;;;15.20;76.50;;;;;;5031407;28;20106;-65
2021/05/07 08:20:22;;;;;;;2.63;1.00;;;15.20;77.30;;;;;;5031157;28;20040;-66
2021/05/07 08:22:49;;;;;;;1.48;0.70;;;15.00;84.30;;;;;;5038712;28;20037;-67
2021/05/07 08:25:15;;;;;;;2.65;0.88;;;15.20;83.20;;;;;;5031988;28;20565;-67
2021/05/07 08:27:42;;;;;;;3.65;1.15;;;15.10;81.70;;;;;;5031869;28;20029;-66
2021/05/07 08:30:10;;;;;;;3.42;1.05;;;14.80;82.40;;;;;;5035224;28;20441;-66
2021/05/07 08:32:36;;;;;;;4.38;1.00;;;14.50;82.30;;;;;;5035765;28;20034;-66
2021/05/07 08:35:02;;;;;;;1.77;1.17;;;14.40;89.60;;;;;;5040277;28;20052;-65
2021/05/07 08:37:28;;;;;;;2.22;1.10;;;14.40;90.20;;;;;;5034638;28;20035;-66
2021/05/07 08:39:55;;;;;;;5.63;1.50;;;14.40;88.30;;;;;;5037667;28;20622;-66
2021/05/07 08:42:21;;;;;;;3.90;1.25;;;14.30;84.30;;;;;;5046513;28;20033;-66
2021/05/07 08:44:50;;;;;;;3.65;1.00;;;14.30;85.80;;;;;;5039057;28;20452;-65
2021/05/07 08:47:17;;;;;;;2.03;0.90;;;14.30;76.60;;;;;;5040433;28;20042;-66
2021/05/07 08:49:45;;;;;;;3.83;0.98;;;14.40;82.20;;;;;;5044145;28;20051;-65
2021/05/07 08:52:11;;;;;;;4.43;1.13;;;14.20;77.00;;;;;;5045775;28;20036;-66
2021/05/07 08:54:37;;;;;;;2.53;1.17;;;14.00;79.50;;;;;;5038630;28;20030;-66
2021/05/07 08:57:02;;;;;;;2.40;1.17;;;13.50;82.60;;;;;;5039944;28;20033;-66
2021/05/07 08:59:28;;;;;;;3.05;1.38;;;13.20;90.00;;;;;;5036812;28;20403;-66
2021/05/07 09:01:53;;;;;;;3.33;1.60;;;13.30;92.50;;;;;;5041240;28;20037;-65
2021/05/07 09:04:20;;;;;;;2.22;1.02;;;13.60;95.70;;;;;;5037169;28;20037;-66
2021/05/07 09:06:52;;;;;;;7.35;1.63;;;13.60;92.50;;;;;;5040304;28;20026;-66
2021/05/07 09:09:29;;;;;;;2.80;1.60;;;13.40;86.50;;;;;;5038279;28;20033;-66
2021/05/07 09:11:56;;;;;;;6.68;1.23;;;13.00;92.60;;;;;;5044127;28;20029;-65
2021/05/07 09:14:23;;;;;;;7.65;1.33;;;12.50;98.00;;;;;;5043886;28;20064;-66
2021/05/07 09:16:56;;;;;;;4.25;1.13;;;12.30;99.90;;;;;;5043404;28;20142;-66
2021/05/07 09:19:28;;;;;;;4.82;1.30;;;12.30;99.90;;;;;;5038115;28;20188;-66
2021/05/07 09:21:54;;;;;;;1.88;1.15;;;12.30;99.90;;;;;;5039268;28;20034;-67
2021/05/07 09:24:33;;;;;;;4.03;1.42;;;12.50;99.90;;;;;;5037966;28;20041;-65
2021/05/07 09:26:59;;;;;;;4.90;1.25;;;13.00;99.90;;;;;;5038956;28;20458;-67
2021/05/07 09:29:28;;;;;;;4.32;1.25;;;13.10;99.90;;;;;;5036129;28;20031;-66
2021/05/07 09:31:54;;;;;;;2.75;1.48;;;13.20;99.90;;;;;;5042050;28;20034;-65
2021/05/07 09:34:22;;;;;;;2.80;1.17;;;13.30;96.10;;;;;;5037811;28;20033;-66
2021/05/07 09:36:48;;;;;;;3.13;1.50;;;13.40;95.90;;;;;;5047885;28;20049;-66
2021/05/07 09:39:15;;;;;;;3.83;1.10;;;13.60;93.60;;;;;;5029385;28;20116;-65
2021/05/07 09:41:51;;;;;;;4.15;0.90;;;13.70;96.40;;;;;;5042893;28;20025;-66
2021/05/07 09:44:21;;;;;;;1.70;1.02;;;13.80;88.90;;;;;;5029641;28;20037;-67
2021/05/07 09:46:47;;;;;;;2.90;1.00;;;14.00;94.70;;;;;;5038165;28;20495;-65
2021/05/07 09:49:29;;;;;;;4.30;1.05;;;14.00;92.30;;;;;;5038944;28;20051;-66
2021/05/07 09:51:56;;;;;;;2.08;1.13;;;14.00;91.30;;;;;;5040892;28;20033;-65
2021/05/07 09:54:22;;;;;;;3.42;1.40;;;14.10;86.40;;;;;;5036134;28;20064;-65
2021/05/07 09:56:48;;;;;;;3.30;1.20;;;14.30;84.50;;;;;;5030206;28;20029;-65
2021/05/07 09:59:18;;;;;;;1.88;1.00;;;14.50;89.50;;;;;;5037264;28;20037;-65
2021/05/07 10:01:45;;;;;;;2.78;1.15;;;14.50;80.70;;;;;;5039873;28;20036;-66
2021/05/07 10:04:12;;;;;;;3.88;1.00;;;14.50;87.50;;;;;;5040320;28;20051;-65
2021/05/07 10:06:39;;;;;;;2.17;1.02;;;14.50;78.10;;;;;;5043038;28;20568;-66
2021/05/07 10:09:10;;;;;;;2.97;0.85;;;14.30;77.70;;;;;;5037933;28;20061;-66
2021/05/07 10:11:39;;;;;;;3.53;1.63;;;14.10;78.20;;;;;;5038136;28;20041;-66
2021/05/07 10:14:11;;;;;;;3.40;0.98;;;14.20;85.10;;;;;;5041182;28;20646;-66
2021/05/07 10:16:37;;;;;;;3.58;1.30;;;14.00;80.80;;;;;;5039155;28;20132;-66
2021/05/07 10:19:05;;;;;;;1.98;1.02;;;13.50;82.10;;;;;;5042958;28;20130;-66
2021/05/07 10:21:39;;;;;;;3.90;1.23;;;13.30;83.50;;;;;;5025048;28;20048;-65
2021/05/07 10:24:06;;;;;;;4.32;1.00;;;13.20;84.30;;;;;;5041504;28;20049;-65
2021/05/07 10:26:42;;;;;;;4.65;1.25;;;13.40;88.20;;;;;;5043915;28;20181;-66
2021/05/07 10:29:23;;;;;;;1.90;0.80;;;13.60;82.50;;;;;;5040914;28;20033;-66
2021/05/07 10:31:56;;;;;;;3.75;0.77;;;13.90;78.20;;;;;;5039407;28;20089;-66
2021/05/07 10:34:22;;;;;;;2.78;0.90;;;13.80;72.60;;;;;;5042624;28;20592;-66
2021/05/07 10:36:54;;;;;;;4.28;1.75;;;13.80;73.50;;;;;;5041549;28;20619;-67
2021/05/07 10:39:24;;;;;;;3.38;1.00;;;13.90;71.50;;;;;;5039512;28;20116;-66
2021/05/07 10:41:52;;;;;;;3.37;1.00;;;14.00;70.80;;;;;;5041376;28;20045;-64
2021/05/07 10:44:20;;;;;;;1.48;0.90;;;14.20;71.80;;;;;;5039826;28;20033;-69
2021/05/07 10:47:07;;;;;;;1.95;0.80;;;14.10;75.50;;;;;;5038421;28;20029;-65
2021/05/07 10:49:39;;;;;;;3.95;1.00;;;14.20;71.60;;;;;;5039334;28;20045;-64
2021/05/07 10:52:07;;;;;;;6.43;1.27;;;14.40;71.60;;;;;;5041836;28;20044;-65
2021/05/07 10:54:44;;;;;;;2.63;1.13;;;14.50;70.70;;;;;;5041933;28;20037;-65
2021/05/07 10:57:21;;;;;;;3.15;1.10;;;14.80;72.50;;;;;;5043707;28;20065;-67
2021/05/07 10:59:57;;;;;;;3.58;1.15;;;15.10;70.10;;;;;;5040166;28;20119;-65
2021/05/07 11:02:23;;;;;;;2.40;1.05;;;15.10;69.30;;;;;;5040234;28;20044;-64
2021/05/07 11:04:49;;;;;;;2.45;0.80;;;15.10;65.80;;;;;;5041263;28;20037;-67
2021/05/07 11:07:30;;;;;;;3.75;1.27;;;15.10;62.60;;;;;;5040709;28;20041;-67
2021/05/07 11:10:07;;;;;;;1.98;0.95;;;15.10;65.10;;;;;;5039475;28;20029;-64
2021/05/07 11:12:34;;;;;;;2.28;1.02;;;14.80;59.70;;;;;;5039601;28;20095;-65
2021/05/07 11:14:59;;;;;;;1.83;0.70;;;14.40;60.20;;;;;;5041239;28;20046;-64
2021/05/07 11:17:25;;;;;;;2.47;0.70;;;14.20;64.90;;;;;;5037613;28;20275;-66
2021/05/07 11:19:51;;;;;;;2.05;1.00;;;14.30;64.70;;;;;;5036821;28;20517;-66
2021/05/07 11:22:16;;;;;;;2.03;0.95;;;14.50;63.50;;;;;;5035765;28;20052;-66
2021/05/07 11:24:43;;;;;;;11.98;0.80;;;14.50;63.20;;;;;;5044699;28;20033;-64
2021/05/07 11:27:27;;;;;;;2.33;0.88;;;14.60;61.20;;;;;;5043213;28;20033;-67
2021/05/07 11:30:04;;;;;;;2.47;0.77;;;14.60;62.80;;;;;;5037695;28;20029;-65
2021/05/07 11:32:30;;;;;;;3.08;1.00;;;14.60;61.60;;;;;;5035242;28;20041;-65
2021/05/07 11:35:01;;;;;;;5.18;0.85;;;14.50;63.50;;;;;;5037099;28;20064;-65
2021/05/07 11:37:29;;;;;;;1.80;0.70;;;14.50;63.70;;;;;;5043651;28;20139;-68
2021/05/07 11:39:55;;;;;;;1.83;0.93;;;14.60;63.80;;;;;;5035122;28;20280;-66
2021/05/07 11:42:47;;;;;;;2.10;0.90;;;14.70;62.40;;;;;;5041348;28;20090;-68
2021/05/07 11:45:24;;;;;;;2.58;1.00;;;14.50;62.50;;;;;;5036560;28;20039;-69
2021/05/07 11:47:50;;;;;;;1.80;0.80;;;14.10;64.70;;;;;;5039946;28;20029;-70
2021/05/07 11:50:18;;;;;;;3.22;0.90;;;13.90;62.90;;;;;;5034440;28;20040;-67
2021/05/07 11:52:46;;;;;;;4.18;1.00;;;14.00;66.70;;;;;;5039506;28;20087;-66
2021/05/07 11:55:34;;;;;;;4.07;1.42;;;13.80;70.40;;;;;;5040063;28;20033;-66
2021/05/07 11:58:08;;;;;;;3.13;1.30;;;13.80;71.30;;;;;;5037108;28;20115;-66
2021/05/07 12:00:38;;;;;;;3.55;1.05;;;13.90;70.60;;;;;;5019545;28;20116;-64
2021/05/07 12:03:06;;;;;;;2.80;1.40;;;14.00;76.20;;;;;;5039112;28;20033;-65
2021/05/07 12:05:33;;;;;;;3.25;1.08;;;14.30;72.60;;;;;;5031753;28;20387;-63
2021/05/07 12:08:00;;;;;;;2.92;1.15;;;14.30;65.10;;;;;;5042917;28;20045;-66
2021/05/07 12:10:28;;;;;;;1.92;0.70;;;14.30;66.30;;;;;;5047151;28;20107;-66
2021/05/07 12:12:55;;;;;;;2.97;1.33;;;14.40;66.50;;;;;;5048963;28;20124;-64
2021/05/07 12:15:23;;;;;;;3.47;1.20;;;14.40;67.50;;;;;;5041003;28;20044;-64
2021/05/07 12:17:51;;;;;;;2.67;1.00;;;14.40;65.70;;;;;;5036665;28;20035;-67
2021/05/07 12:20:27;;;;;;;4.35;0.70;;;14.50;66.70;;;;;;5045079;28;20498;-68
2021/05/07 12:22:54;;;;;;;3.92;0.85;;;14.50;69.40;;;;;;5019054;28;20347;-65
2021/05/07 12:25:21;;;;;;;4.50;1.05;;;14.80;66.60;;;;;;5017933;28;20045;-64
2021/05/07 12:27:49;;;;;;;5.53;1.20;;;15.00;63.90;;;;;;5041867;28;20553;-65
2021/05/07 12:30:25;;;;;;;4.63;1.30;;;14.90;67.90;;;;;;5037399;28;20446;-64
2021/05/07 12:32:57;;;;;;;4.22;1.42;;;15.00;66.70;;;;;;5043085;28;20116;-64
2021/05/07 12:35:38;;;;;;;4.07;1.05;;;14.80;65.50;;;;;;5040520;28;20525;-63
2021/05/07 12:38:13;;;;;;;2.33;1.10;;;14.50;65.80;;;;;;5046031;28;20142;-67
2021/05/07 12:40:38;;;;;;;2.42;1.27;;;14.20;67.30;;;;;;5045333;28;20047;-66
2021/05/07 12:43:04;;;;;;;3.25;1.20;;;13.90;68.00;;;;;;5043918;28;20033;-65
2021/05/07 12:45:29;;;;;;;2.30;0.90;;;13.80;72.00;;;;;;5031031;28;20499;-63
2021/05/07 12:47:55;;;;;;;3.53;1.20;;;13.70;71.10;;;;;;5040378;28;20059;-65
2021/05/07 12:50:20;;;;;;;1.85;0.98;;;13.90;73.30;;;;;;5039412;28;20179;-65